createdAt,value
2022-10-23T00:01:45.440Z,6.20
2022-10-23T00:04:16.771Z,6.10
2022-10-23T00:06:46.783Z,6.10
2022-10-23T00:09:21.080Z,6.20
2022-10-23T00:11:50.769Z,6.30
2022-10-23T00:14:21.305Z,6.30
2022-10-23T00:16:49.480Z,6.30
2022-10-23T00:19:18.110Z,6.30
2022-10-23T00:21:47.697Z,6.20
2022-10-23T00:24:15.949Z,6.30
2022-10-23T00:26:44.195Z,6.30
2022-10-23T00:29:12.913Z,6.50
2022-10-23T00:31:41.228Z,6.40
2022-10-23T00:34:12.382Z,6.40
2022-10-23T00:36:40.854Z,6.40
2022-10-23T00:39:10.332Z,6.50
2022-10-23T00:41:38.685Z,6.50
2022-10-23T00:44:12.282Z,6.50
2022-10-23T00:46:40.799Z,6.40
2022-10-23T00:51:42.137Z,6.20
2022-10-23T00:54:23.326Z,6.20
2022-10-23T00:56:53.722Z,6.20
2022-10-23T00:59:22.039Z,6.30
2022-10-23T01:01:50.124Z,6.20
2022-10-23T01:04:18.607Z,6.20
2022-10-23T01:06:55.208Z,6.20
2022-10-23T01:09:32.712Z,6.20
2022-10-23T01:12:08.476Z,6.10
2022-10-23T01:14:43.485Z,6.10
2022-10-23T01:17:16.579Z,6.10
2022-10-23T01:19:52.179Z,6.00
2022-10-23T01:22:34.232Z,6.10
2022-10-23T01:25:12.554Z,6.10
2022-10-23T01:27:46.584Z,6.00
2022-10-23T01:30:18.043Z,5.90
2022-10-23T01:32:52.714Z,5.80
2022-10-23T01:35:23.782Z,5.70
2022-10-23T01:37:56.020Z,5.70
2022-10-23T01:40:34.136Z,5.40
2022-10-23T01:43:15.352Z,5.30
2022-10-23T01:45:46.856Z,5.40
2022-10-23T01:48:21.515Z,5.40
2022-10-23T01:50:51.290Z,5.30
2022-10-23T01:53:20.961Z,5.30
2022-10-23T01:55:51.012Z,5.20
2022-10-23T01:58:22.163Z,5.20
2022-10-23T02:00:52.758Z,5.10
2022-10-23T02:03:21.961Z,5.10
2022-10-23T02:05:52.651Z,5.10
2022-10-23T02:08:21.220Z,5.10
2022-10-23T02:10:52.979Z,5.00
2022-10-23T02:13:28.970Z,4.90
2022-10-23T02:16:04.692Z,4.80
2022-10-23T02:18:45.995Z,4.90
2022-10-23T02:21:18.727Z,4.80
2022-10-23T02:23:55.248Z,4.80
2022-10-23T02:26:28.768Z,4.70
2022-10-23T02:29:02.986Z,4.60
2022-10-23T02:31:31.424Z,4.60
2022-10-23T02:33:59.453Z,4.60
2022-10-23T02:36:27.655Z,4.70
2022-10-23T02:38:55.752Z,4.80
2022-10-23T02:41:40.493Z,4.90
2022-10-23T02:44:24.610Z,5.00
2022-10-23T02:47:01.064Z,5.00
2022-10-23T02:49:36.760Z,5.10
2022-10-23T02:52:13.724Z,5.10
2022-10-23T02:54:55.729Z,4.90
2022-10-23T02:57:31.034Z,4.70
2022-10-23T03:00:10.956Z,4.70
2022-10-23T03:02:41.958Z,4.70
2022-10-23T03:05:15.823Z,4.60
2022-10-23T03:07:44.900Z,4.50
2022-10-23T03:10:13.645Z,4.40
2022-10-23T03:12:42.581Z,4.60
2022-10-23T03:15:13.113Z,4.50
2022-10-23T03:17:44.157Z,4.50
2022-10-23T03:20:13.021Z,4.40
2022-10-23T03:22:41.966Z,4.40
2022-10-23T03:25:11.513Z,4.40
2022-10-23T03:27:39.583Z,4.40
2022-10-23T03:30:09.052Z,4.40
2022-10-23T03:32:38.607Z,4.40
2022-10-23T03:35:07.417Z,4.40
2022-10-23T03:37:35.464Z,4.40
2022-10-23T03:40:03.667Z,4.30
2022-10-23T03:42:31.735Z,4.20
2022-10-23T03:44:59.748Z,3.90
2022-10-23T03:47:27.732Z,3.80
2022-10-23T03:49:57.072Z,3.80
2022-10-23T03:54:58.023Z,4.00
2022-10-23T03:57:26.567Z,4.00
2022-10-23T03:59:54.637Z,3.90
2022-10-23T04:02:22.737Z,3.60
2022-10-23T04:04:50.922Z,3.40
2022-10-23T04:07:23.014Z,3.20
2022-10-23T04:09:51.117Z,3.30
2022-10-23T04:12:19.432Z,3.30
2022-10-23T04:14:47.538Z,3.40
2022-10-23T04:17:15.822Z,3.50
2022-10-23T04:19:43.886Z,3.60
2022-10-23T04:22:11.940Z,3.60
2022-10-23T04:24:45.302Z,3.40
2022-10-23T04:27:13.863Z,3.20
2022-10-23T04:29:41.958Z,3.20
2022-10-23T04:32:09.933Z,3.20
2022-10-23T04:34:38.111Z,3.20
2022-10-23T04:37:09.852Z,3.30
2022-10-23T04:39:37.892Z,3.30
2022-10-23T04:42:07.500Z,3.20
2022-10-23T04:44:35.684Z,3.20
2022-10-23T04:47:03.942Z,3.40
2022-10-23T04:49:32.000Z,3.40
2022-10-23T04:51:59.991Z,3.40
2022-10-23T04:54:28.005Z,3.30
2022-10-23T04:56:56.028Z,3.30
2022-10-23T04:59:25.361Z,3.20
2022-10-23T05:01:53.799Z,3.20
2022-10-23T05:04:21.867Z,3.30
2022-10-23T05:06:49.893Z,3.10
2022-10-23T05:09:18.068Z,3.10
2022-10-23T05:11:46.039Z,3.20
2022-10-23T05:14:15.575Z,3.20
2022-10-23T05:16:53.831Z,3.20
2022-10-23T05:19:27.769Z,3.30
2022-10-23T05:21:57.315Z,3.40
2022-10-23T05:24:26.600Z,3.50
2022-10-23T05:26:54.784Z,3.50
2022-10-23T05:29:24.399Z,3.60
2022-10-23T05:31:56.956Z,3.60
2022-10-23T05:34:27.358Z,3.60
2022-10-23T05:36:56.060Z,3.80
2022-10-23T05:39:24.315Z,3.70
2022-10-23T05:41:52.617Z,3.80
2022-10-23T05:44:21.168Z,3.80
2022-10-23T05:47:19.352Z,3.90
2022-10-23T05:49:47.450Z,3.90
2022-10-23T05:52:22.381Z,3.80
2022-10-23T05:54:52.598Z,3.90
2022-10-23T05:57:20.812Z,3.80
2022-10-23T05:59:49.117Z,3.90
2022-10-23T06:02:18.730Z,3.70
2022-10-23T06:04:46.885Z,3.90
2022-10-23T06:07:24.661Z,3.90
2022-10-23T06:09:54.308Z,3.90
2022-10-23T06:12:22.497Z,3.50
2022-10-23T06:14:51.863Z,3.50
2022-10-23T06:17:21.605Z,3.70
2022-10-23T06:19:49.660Z,3.70
2022-10-23T06:22:17.709Z,3.80
2022-10-23T06:24:45.759Z,3.80
2022-10-23T06:27:13.956Z,3.60
2022-10-23T06:29:44.465Z,3.60
2022-10-23T06:32:14.962Z,3.60
2022-10-23T06:34:47.365Z,3.70
2022-10-23T06:37:15.557Z,3.80
2022-10-23T06:39:43.626Z,3.90
2022-10-23T06:42:12.123Z,3.80
2022-10-23T06:44:40.314Z,3.90
2022-10-23T06:47:10.489Z,3.80
2022-10-23T06:49:40.962Z,4.00
2022-10-23T06:52:18.426Z,4.00
2022-10-23T06:54:57.492Z,4.20
2022-10-23T06:57:25.649Z,4.30
2022-10-23T06:59:56.818Z,4.50
2022-10-23T07:02:24.950Z,4.40
2022-10-23T07:04:52.981Z,4.60
2022-10-23T07:07:25.832Z,4.50
2022-10-23T07:09:54.041Z,4.50
2022-10-23T07:12:22.411Z,4.60
2022-10-23T07:14:57.961Z,4.50
2022-10-23T07:17:27.355Z,4.60
2022-10-23T07:19:55.357Z,4.60
2022-10-23T07:22:25.140Z,4.70
2022-10-23T07:24:53.192Z,4.70
2022-10-23T07:27:21.632Z,4.90
2022-10-23T07:29:51.847Z,5.10
2022-10-23T07:32:20.684Z,5.20
2022-10-23T07:34:49.501Z,5.40
2022-10-23T07:37:19.848Z,5.40
2022-10-23T07:39:49.548Z,5.60
2022-10-23T07:42:17.787Z,5.80
2022-10-23T07:44:45.868Z,6.00
2022-10-23T07:47:14.483Z,5.90
2022-10-23T07:49:42.873Z,6.00
2022-10-23T07:52:12.267Z,6.20
2022-10-23T07:54:42.736Z,6.60
2022-10-23T07:57:13.044Z,6.70
2022-10-23T07:59:41.308Z,6.90
2022-10-23T08:02:12.719Z,6.80
2022-10-23T08:04:40.775Z,6.60
2022-10-23T08:07:08.919Z,6.90
2022-10-23T08:09:38.035Z,7.20
2022-10-23T08:12:06.585Z,7.60
2022-10-23T08:14:36.069Z,7.60
2022-10-23T08:17:09.580Z,7.90
2022-10-23T08:19:37.967Z,8.10
2022-10-23T08:22:09.272Z,8.30
2022-10-23T08:24:37.284Z,8.40
2022-10-23T08:27:05.395Z,8.70
2022-10-23T08:29:35.062Z,8.90
2022-10-23T08:32:03.121Z,9.20
2022-10-23T08:34:31.289Z,9.20
2022-10-23T08:36:59.752Z,9.50
2022-10-23T08:39:27.880Z,9.70
2022-10-23T08:41:56.009Z,9.80
2022-10-23T08:44:29.240Z,10.00
2022-10-23T08:47:08.362Z,10.20
2022-10-23T08:49:44.245Z,10.40
2022-10-23T08:52:21.560Z,10.60
2022-10-23T08:55:06.055Z,11.30
2022-10-23T08:57:41.442Z,11.50
2022-10-23T09:00:16.604Z,11.50
2022-10-23T09:02:47.767Z,11.80
2022-10-23T09:05:20.556Z,11.80
2022-10-23T09:08:13.863Z,11.90
2022-10-23T09:11:07.406Z,12.00
2022-10-23T09:14:00.007Z,12.40
2022-10-23T09:16:44.316Z,13.10
2022-10-23T09:19:18.274Z,13.60
2022-10-23T09:21:50.061Z,14.20
2022-10-23T09:24:20.333Z,14.70
2022-10-23T09:26:50.678Z,15.10
2022-10-23T09:29:25.346Z,15.30
2022-10-23T09:31:58.552Z,15.40
2022-10-23T09:34:29.732Z,15.40
2022-10-23T09:37:00.845Z,15.30
2022-10-23T09:39:31.368Z,15.20
2022-10-23T09:42:02.468Z,15.20
2022-10-23T09:44:33.261Z,15.00
2022-10-23T09:47:11.153Z,14.90
2022-10-23T09:49:47.307Z,14.70
2022-10-23T09:52:25.745Z,14.50
2022-10-23T09:54:57.125Z,14.40
2022-10-23T09:57:30.091Z,14.50
2022-10-23T10:00:01.599Z,14.40
2022-10-23T10:02:32.404Z,14.50
2022-10-23T10:05:13.533Z,14.50
2022-10-23T10:07:43.094Z,14.60
2022-10-23T10:10:16.750Z,14.60
2022-10-23T10:12:51.498Z,14.70
2022-10-23T10:15:27.252Z,14.60
2022-10-23T10:18:09.275Z,14.40
2022-10-23T10:20:56.427Z,14.40
2022-10-23T10:23:33.504Z,14.30
2022-10-23T10:26:09.067Z,14.70
2022-10-23T10:28:54.800Z,15.00
2022-10-23T10:31:34.313Z,15.00
2022-10-23T10:34:11.459Z,14.70
2022-10-23T10:36:50.637Z,15.10
2022-10-23T10:39:28.892Z,15.60
2022-10-23T10:42:23.725Z,15.90
2022-10-23T10:45:01.636Z,16.10
2022-10-23T10:47:38.876Z,16.20
2022-10-23T10:50:18.219Z,16.30
2022-10-23T10:52:56.724Z,16.20
2022-10-23T10:55:31.614Z,16.40
2022-10-23T10:58:05.936Z,16.80
2022-10-23T11:00:35.763Z,17.20
2022-10-23T11:03:12.478Z,17.30
2022-10-23T11:05:45.415Z,17.30
2022-10-23T11:08:20.593Z,17.30
2022-10-23T11:10:53.020Z,17.10
2022-10-23T11:13:28.095Z,16.90
2022-10-23T11:16:00.924Z,16.70
2022-10-23T11:18:32.059Z,16.40
2022-10-23T11:21:08.732Z,15.90
2022-10-23T11:24:03.119Z,15.70
2022-10-23T11:26:42.776Z,15.60
2022-10-23T11:29:45.606Z,15.60
2022-10-23T11:32:28.103Z,15.60
2022-10-23T11:35:15.469Z,15.60
2022-10-23T11:37:44.274Z,15.60
2022-10-23T11:40:24.818Z,15.30
2022-10-23T11:42:53.331Z,15.30
2022-10-23T11:45:33.795Z,15.20
2022-10-23T11:48:04.221Z,15.20
2022-10-23T11:50:34.210Z,15.20
2022-10-23T11:53:14.300Z,15.10
2022-10-23T11:55:58.973Z,15.20
2022-10-23T11:58:31.865Z,15.20
2022-10-23T12:01:05.254Z,15.00
2022-10-23T12:03:48.612Z,14.80
2022-10-23T12:06:23.618Z,14.60
2022-10-23T12:08:55.005Z,14.80
2022-10-23T12:11:49.475Z,14.80
2022-10-23T12:14:29.215Z,15.00
2022-10-23T12:16:57.603Z,15.00
2022-10-23T12:19:28.814Z,14.80
2022-10-23T12:22:00.409Z,14.80
2022-10-23T12:24:42.416Z,14.70
2022-10-23T12:27:23.276Z,14.60
2022-10-23T12:30:15.456Z,14.60
2022-10-23T12:33:04.279Z,14.70
2022-10-23T12:35:52.931Z,14.70
2022-10-23T12:38:23.943Z,14.90
2022-10-23T12:40:53.775Z,15.00
2022-10-23T12:43:27.316Z,15.00
2022-10-23T12:45:57.287Z,14.90
2022-10-23T12:48:26.247Z,14.80
2022-10-23T12:50:56.597Z,14.80
2022-10-23T12:53:26.082Z,14.90
2022-10-23T12:58:35.451Z,14.90
2022-10-23T13:01:05.542Z,14.60
2022-10-23T13:03:35.150Z,14.50
2022-10-23T13:06:04.057Z,14.40
2022-10-23T13:08:43.818Z,14.50
2022-10-23T13:11:16.637Z,14.70
2022-10-23T13:13:47.060Z,14.70
2022-10-23T13:16:16.163Z,14.70
2022-10-23T13:18:44.533Z,14.70
2022-10-23T13:21:19.022Z,14.60
2022-10-23T13:23:47.493Z,14.60
2022-10-23T13:26:33.431Z,14.60
2022-10-23T13:29:08.790Z,14.40
2022-10-23T13:31:37.864Z,14.40
2022-10-23T13:34:19.970Z,14.50
2022-10-23T13:36:55.136Z,14.70
2022-10-23T13:39:28.535Z,14.70
2022-10-23T13:41:57.731Z,14.70
2022-10-23T13:44:27.177Z,14.70
2022-10-23T13:46:55.291Z,14.70
2022-10-23T13:49:23.289Z,14.80
2022-10-23T13:51:53.931Z,14.80
2022-10-23T13:54:23.598Z,14.80
2022-10-23T13:56:52.568Z,14.70
2022-10-23T13:59:20.790Z,14.70
2022-10-23T14:01:51.773Z,14.70
2022-10-23T14:04:20.627Z,14.70
2022-10-23T14:06:48.995Z,14.70
2022-10-23T14:09:19.378Z,14.70
2022-10-23T14:11:47.751Z,14.70
2022-10-23T14:14:16.502Z,14.60
2022-10-23T14:16:45.640Z,14.50
2022-10-23T14:19:15.006Z,14.40
2022-10-23T14:21:43.004Z,14.30
2022-10-23T14:24:10.941Z,14.20
2022-10-23T14:26:39.135Z,14.30
2022-10-23T14:29:09.908Z,14.20
2022-10-23T14:31:39.535Z,14.40
2022-10-23T14:34:07.481Z,14.30
2022-10-23T14:36:49.363Z,14.10
2022-10-23T14:39:19.097Z,14.00
2022-10-23T14:41:47.075Z,14.10
2022-10-23T14:44:15.309Z,14.10
2022-10-23T14:46:43.447Z,14.10
2022-10-23T14:49:11.512Z,14.10
2022-10-23T14:51:40.892Z,14.10
2022-10-23T14:54:09.247Z,14.20
2022-10-23T14:56:39.946Z,14.10
2022-10-23T14:59:10.215Z,14.10
2022-10-23T15:01:45.063Z,14.00
2022-10-23T15:04:15.412Z,14.00
2022-10-23T15:06:46.667Z,13.90
2022-10-23T15:09:15.123Z,13.80
2022-10-23T15:11:43.653Z,13.70
2022-10-23T15:14:11.657Z,13.60
2022-10-23T15:16:41.779Z,13.50
2022-10-23T15:19:15.168Z,13.40
2022-10-23T15:21:48.631Z,13.30
2022-10-23T15:24:17.379Z,13.00
2022-10-23T15:26:47.224Z,13.00
2022-10-23T15:29:16.079Z,12.90
2022-10-23T15:31:49.846Z,12.90
2022-10-23T15:34:20.202Z,12.70
2022-10-23T15:36:50.242Z,12.60
2022-10-23T15:39:20.766Z,12.40
2022-10-23T15:41:51.056Z,12.10
2022-10-23T15:44:20.592Z,12.00
2022-10-23T15:46:49.551Z,11.90
2022-10-23T15:49:17.947Z,11.80
2022-10-23T15:51:46.924Z,11.50
2022-10-23T15:54:22.230Z,11.30
2022-10-23T15:56:53.087Z,11.20
2022-10-23T15:59:24.002Z,11.10
2022-10-23T16:01:52.686Z,11.00
2022-10-23T16:04:20.844Z,10.90
2022-10-23T16:06:49.495Z,10.90
2022-10-23T16:09:18.889Z,10.90
2022-10-23T16:11:47.004Z,10.80
2022-10-23T16:14:17.710Z,10.70
2022-10-23T16:16:46.000Z,10.50
2022-10-23T16:19:14.183Z,10.30
2022-10-23T16:21:42.890Z,10.10
2022-10-23T16:24:11.688Z,10.10
2022-10-23T16:26:41.188Z,10.10
2022-10-23T16:29:10.589Z,10.00
2022-10-23T16:31:38.847Z,9.80
2022-10-23T16:34:07.330Z,9.70
2022-10-23T16:36:38.896Z,9.80
2022-10-23T16:39:07.654Z,9.80
2022-10-23T16:41:35.829Z,9.80
2022-10-23T16:44:05.287Z,9.70
2022-10-23T16:46:34.097Z,9.70
2022-10-23T16:49:03.913Z,9.70
2022-10-23T16:51:32.392Z,9.60
2022-10-23T16:54:00.466Z,9.70
2022-10-23T16:56:30.577Z,9.60
2022-10-23T17:01:34.502Z,9.70
2022-10-23T17:04:02.773Z,9.60
2022-10-23T17:06:33.426Z,9.70
2022-10-23T17:09:03.706Z,9.50
2022-10-23T17:11:33.292Z,9.50
2022-10-23T17:14:04.358Z,9.50
2022-10-23T17:16:37.009Z,9.60
2022-10-23T17:19:15.980Z,9.60
2022-10-23T17:21:49.200Z,9.60
2022-10-23T17:24:18.146Z,9.60
2022-10-23T17:26:46.640Z,9.70
2022-10-23T17:29:15.631Z,9.70
2022-10-23T17:31:47.203Z,9.60
2022-10-23T17:34:18.700Z,9.60
2022-10-23T17:36:50.394Z,9.60
2022-10-23T17:39:21.001Z,9.50
2022-10-23T17:41:49.621Z,9.60
2022-10-23T17:44:18.242Z,9.50
2022-10-23T17:46:52.321Z,9.50
2022-10-23T17:49:20.717Z,9.50
2022-10-23T17:51:52.979Z,9.40
2022-10-23T17:54:21.246Z,9.30
2022-10-23T17:56:50.443Z,9.40
2022-10-23T17:59:19.971Z,9.40
2022-10-23T18:01:50.083Z,9.40
2022-10-23T18:04:19.335Z,9.40
2022-10-23T18:06:49.518Z,9.30
2022-10-23T18:09:17.850Z,9.30
2022-10-23T18:11:48.575Z,9.10
2022-10-23T18:14:17.986Z,9.10
2022-10-23T18:16:47.314Z,9.10
2022-10-23T18:19:18.546Z,9.20
2022-10-23T18:21:47.358Z,9.20
2022-10-23T18:24:16.412Z,9.20
2022-10-23T18:26:46.197Z,9.20
2022-10-23T18:29:14.827Z,9.20
2022-10-23T18:31:43.940Z,9.30
2022-10-23T18:34:17.445Z,9.20
2022-10-23T18:36:46.322Z,9.20
2022-10-23T18:39:16.674Z,9.30
2022-10-23T18:41:46.488Z,9.20
2022-10-23T18:44:17.635Z,9.30
2022-10-23T18:46:45.969Z,9.20
2022-10-23T18:49:15.516Z,9.30
2022-10-23T18:51:45.906Z,9.20
2022-10-23T18:54:16.107Z,9.00
2022-10-23T18:56:44.899Z,9.10
2022-10-23T18:59:17.340Z,9.20
2022-10-23T19:01:46.155Z,9.20
2022-10-23T19:04:16.192Z,9.20
2022-10-23T19:06:46.428Z,9.30
2022-10-23T19:09:15.526Z,9.30
2022-10-23T19:11:45.179Z,9.30
2022-10-23T19:14:13.452Z,9.30
2022-10-23T19:16:45.435Z,9.30
2022-10-23T19:19:19.077Z,9.40
2022-10-23T19:21:49.828Z,9.30
2022-10-23T19:24:22.592Z,9.30
2022-10-23T19:26:51.638Z,9.30
2022-10-23T19:29:24.724Z,9.20
2022-10-23T19:31:53.317Z,9.30
2022-10-23T19:34:24.649Z,9.30
2022-10-23T19:36:55.590Z,9.30
2022-10-23T19:39:25.754Z,9.30
2022-10-23T19:41:54.135Z,9.30
2022-10-23T19:44:22.756Z,9.40
2022-10-23T19:46:50.800Z,9.30
2022-10-23T19:49:19.467Z,9.40
2022-10-23T19:51:51.240Z,9.40
2022-10-23T19:54:21.405Z,9.30
2022-10-23T19:56:50.336Z,9.30
2022-10-23T19:59:18.448Z,9.50
2022-10-23T20:01:49.025Z,9.40
2022-10-23T20:04:18.142Z,9.50
2022-10-23T20:06:46.278Z,9.50
2022-10-23T20:09:15.556Z,9.50
2022-10-23T20:11:45.486Z,9.60
2022-10-23T20:14:14.187Z,9.70
2022-10-23T20:16:44.703Z,9.60
2022-10-23T20:19:14.804Z,9.70
2022-10-23T20:21:44.982Z,9.80
2022-10-23T20:24:14.993Z,9.70
2022-10-23T20:26:46.369Z,9.60
2022-10-23T20:29:15.020Z,9.50
2022-10-23T20:31:43.924Z,9.40
2022-10-23T20:34:13.350Z,9.50
2022-10-23T20:36:46.440Z,9.50
2022-10-23T20:39:17.440Z,9.40
2022-10-23T20:41:47.000Z,9.50
2022-10-23T20:46:45.868Z,9.50
2022-10-23T20:49:14.857Z,9.40
2022-10-23T20:51:45.193Z,9.30
2022-10-23T20:54:13.185Z,9.40
2022-10-23T20:56:41.343Z,9.30
2022-10-23T20:59:13.298Z,9.30
2022-10-23T21:01:42.526Z,9.40
2022-10-23T21:04:13.971Z,9.30
2022-10-23T21:06:57.803Z,9.20
2022-10-23T21:09:31.400Z,9.20
2022-10-23T21:12:04.607Z,9.10
2022-10-23T21:14:34.091Z,9.10
2022-10-23T21:17:02.109Z,9.10
2022-10-23T21:19:30.143Z,9.30
2022-10-23T21:21:58.342Z,9.30
2022-10-23T21:24:26.376Z,9.30
2022-10-23T21:26:54.478Z,9.30
2022-10-23T21:29:22.607Z,9.30
2022-10-23T21:31:57.070Z,9.30
2022-10-23T21:34:25.747Z,9.40
2022-10-23T21:37:11.950Z,9.40
2022-10-23T21:39:41.455Z,9.40
2022-10-23T21:42:09.578Z,9.40
2022-10-23T21:44:37.663Z,9.40
2022-10-23T21:47:07.083Z,9.40
2022-10-23T21:49:35.060Z,9.40
2022-10-23T21:52:03.186Z,9.30
2022-10-23T21:54:31.173Z,9.40
2022-10-23T21:56:59.218Z,9.30
2022-10-23T21:59:31.517Z,9.20
2022-10-23T22:02:01.366Z,9.40
2022-10-23T22:04:30.844Z,9.40
2022-10-23T22:06:58.854Z,9.40
2022-10-23T22:09:26.904Z,9.40
2022-10-23T22:11:55.948Z,9.40
2022-10-23T22:14:24.212Z,9.40
2022-10-23T22:16:52.429Z,9.40
2022-10-23T22:19:21.845Z,9.50
2022-10-23T22:21:52.696Z,9.40
2022-10-23T22:24:21.003Z,9.40
2022-10-23T22:26:57.815Z,9.50
2022-10-23T22:29:27.425Z,9.50
2022-10-23T22:31:55.494Z,9.50
2022-10-23T22:34:41.140Z,9.50
2022-10-23T22:37:15.082Z,9.40
2022-10-23T22:39:43.451Z,9.50
2022-10-23T22:42:11.422Z,9.50
2022-10-23T22:44:39.799Z,9.50
2022-10-23T22:47:08.921Z,9.60
2022-10-23T22:49:38.321Z,9.60
2022-10-23T22:52:06.556Z,9.50
2022-10-23T22:54:36.078Z,9.50
2022-10-23T22:57:04.234Z,9.60
2022-10-23T22:59:32.294Z,9.60
2022-10-23T23:02:00.716Z,9.60
2022-10-23T23:04:44.062Z,9.70
2022-10-23T23:07:13.760Z,9.70
2022-10-23T23:09:46.886Z,9.70
2022-10-23T23:12:15.538Z,9.60
2022-10-23T23:14:43.864Z,9.50
2022-10-23T23:17:14.561Z,9.60
2022-10-23T23:19:42.599Z,9.70
2022-10-23T23:22:10.646Z,9.80
2022-10-23T23:24:38.697Z,9.70
2022-10-23T23:27:08.047Z,9.60
2022-10-23T23:29:36.028Z,9.80
2022-10-23T23:32:06.286Z,9.80
2022-10-23T23:34:34.524Z,9.80
2022-10-23T23:37:02.685Z,9.70
2022-10-23T23:39:30.823Z,9.70
2022-10-23T23:41:58.816Z,9.60
2022-10-23T23:44:28.247Z,9.30
2022-10-23T23:46:56.769Z,9.40
2022-10-23T23:49:24.916Z,9.30
2022-10-23T23:51:53.079Z,9.40
2022-10-23T23:54:21.071Z,9.60
2022-10-23T23:56:49.148Z,9.60
2022-10-23T23:59:17.227Z,9.70
